createdAt,value
2023-05-07T00:01:38.197Z,8.80
2023-05-07T00:04:05.120Z,7.80
2023-05-07T00:06:33.354Z,6.15
2023-05-07T00:09:01.803Z,8.80
2023-05-07T00:11:29.209Z,8.67
2023-05-07T00:13:55.728Z,7.97
2023-05-07T00:16:22.465Z,8.50
2023-05-07T00:18:49.173Z,10.63
2023-05-07T00:21:15.777Z,10.32
2023-05-07T00:23:42.303Z,11.00
2023-05-07T00:26:08.851Z,10.82
2023-05-07T00:28:35.421Z,10.88
2023-05-07T00:31:01.924Z,9.43
2023-05-07T00:33:28.565Z,9.88
2023-05-07T00:35:55.380Z,10.40
2023-05-07T00:38:21.865Z,9.57
2023-05-07T00:40:48.415Z,8.98
2023-05-07T00:43:14.915Z,10.38
2023-05-07T00:45:41.606Z,9.07
2023-05-07T00:48:08.403Z,9.63
2023-05-07T00:50:35.073Z,10.25
2023-05-07T00:53:01.692Z,9.63
2023-05-07T00:55:28.253Z,10.68
2023-05-07T00:57:54.974Z,10.48
2023-05-07T01:00:22.065Z,10.17
2023-05-07T01:02:48.786Z,11.13
2023-05-07T01:05:18.964Z,8.82
2023-05-07T01:07:46.793Z,8.38
2023-05-07T01:10:38.768Z,9.85
2023-05-07T01:13:06.307Z,10.70
2023-05-07T01:15:33.012Z,10.70
2023-05-07T01:17:59.656Z,11.80
2023-05-07T01:20:32.520Z,14.68
2023-05-07T01:23:00.030Z,11.63
2023-05-07T01:25:26.892Z,12.60
2023-05-07T01:27:56.650Z,9.10
2023-05-07T01:30:28.203Z,10.77
2023-05-07T01:33:01.043Z,8.98
2023-05-07T01:35:36.749Z,11.73
2023-05-07T01:38:05.455Z,10.43
2023-05-07T01:40:32.032Z,11.75
2023-05-07T01:42:58.706Z,10.32
2023-05-07T01:45:25.976Z,9.80
2023-05-07T01:47:53.889Z,10.55
2023-05-07T01:50:21.269Z,13.47
2023-05-07T01:52:48.416Z,10.55
2023-05-07T01:55:14.934Z,10.45
2023-05-07T01:57:42.054Z,11.77
2023-05-07T02:00:10.120Z,12.35
2023-05-07T02:02:44.554Z,14.10
2023-05-07T02:05:21.986Z,12.65
2023-05-07T02:07:55.905Z,11.32
2023-05-07T02:10:22.785Z,9.30
2023-05-07T02:12:49.331Z,7.60
2023-05-07T02:15:15.984Z,8.97
2023-05-07T02:18:02.909Z,11.57
2023-05-07T02:20:29.892Z,10.02
2023-05-07T02:22:57.089Z,10.82
2023-05-07T02:25:24.979Z,13.30
2023-05-07T02:27:52.008Z,11.87
2023-05-07T02:30:22.435Z,11.20
2023-05-07T02:32:52.289Z,11.40
2023-05-07T02:35:18.958Z,9.70
2023-05-07T02:37:45.527Z,10.43
2023-05-07T02:40:12.883Z,11.17
2023-05-07T02:42:39.697Z,13.80
2023-05-07T02:45:06.794Z,14.43
2023-05-07T02:47:33.535Z,11.05
2023-05-07T02:50:01.657Z,11.30
2023-05-07T02:52:28.335Z,13.17
2023-05-07T02:54:54.885Z,10.85
2023-05-07T02:57:21.470Z,12.73
2023-05-07T02:59:48.009Z,13.32
2023-05-07T03:02:15.666Z,10.65
2023-05-07T03:04:43.243Z,12.47
2023-05-07T03:07:09.759Z,11.93
2023-05-07T03:09:36.231Z,13.90
2023-05-07T03:12:03.387Z,9.68
2023-05-07T03:14:30.013Z,11.93
2023-05-07T03:16:56.820Z,13.50
2023-05-07T03:19:23.365Z,11.35
2023-05-07T03:21:49.892Z,14.25
2023-05-07T03:24:16.495Z,15.35
2023-05-07T03:26:43.033Z,12.52
2023-05-07T03:29:10.021Z,12.60
2023-05-07T03:31:36.914Z,11.30
2023-05-07T03:34:03.552Z,12.18
2023-05-07T03:36:30.096Z,13.88
2023-05-07T03:38:57.346Z,10.40
2023-05-07T03:41:27.058Z,15.63
2023-05-07T03:43:53.976Z,13.00
2023-05-07T03:46:21.125Z,13.60
2023-05-07T03:48:48.125Z,12.73
2023-05-07T03:51:15.984Z,11.00
2023-05-07T03:53:42.550Z,10.80
2023-05-07T03:56:09.093Z,12.75
2023-05-07T03:58:38.500Z,11.63
2023-05-07T04:01:08.895Z,13.80
2023-05-07T04:03:35.887Z,12.30
2023-05-07T04:06:02.545Z,12.33
2023-05-07T04:08:31.607Z,11.57
2023-05-07T04:10:59.332Z,12.38
2023-05-07T04:13:31.298Z,12.05
2023-05-07T04:15:58.908Z,11.02
2023-05-07T04:18:26.558Z,10.70
2023-05-07T04:20:53.200Z,12.07
2023-05-07T04:23:19.704Z,12.73
2023-05-07T04:25:46.586Z,13.52
2023-05-07T04:28:26.783Z,11.90
2023-05-07T04:30:53.632Z,12.97
2023-05-07T04:33:21.751Z,11.40
2023-05-07T04:35:49.924Z,12.75
2023-05-07T04:38:17.443Z,11.90
2023-05-07T04:40:45.113Z,12.85
2023-05-07T04:43:15.710Z,12.20
2023-05-07T04:45:47.518Z,12.93
2023-05-07T04:48:15.670Z,15.05
2023-05-07T04:50:42.313Z,13.70
2023-05-07T04:53:09.422Z,11.38
2023-05-07T04:55:36.140Z,12.47
2023-05-07T04:58:04.045Z,11.68
2023-05-07T05:00:34.312Z,14.82
2023-05-07T05:03:03.788Z,12.98
2023-05-07T05:05:30.684Z,15.93
2023-05-07T05:07:58.456Z,15.60
2023-05-07T05:10:29.545Z,13.55
2023-05-07T05:12:56.893Z,14.10
2023-05-07T05:15:24.508Z,15.43
2023-05-07T05:17:52.288Z,10.43
2023-05-07T05:20:19.449Z,12.03
2023-05-07T05:22:47.637Z,12.45
2023-05-07T05:25:14.156Z,12.82
2023-05-07T05:27:40.776Z,13.98
2023-05-07T05:30:08.811Z,14.18
2023-05-07T05:32:36.076Z,12.23
2023-05-07T05:35:02.799Z,12.82
2023-05-07T05:37:31.193Z,14.73
2023-05-07T05:39:59.258Z,13.50
2023-05-07T05:42:27.491Z,12.07
2023-05-07T05:44:55.222Z,12.37
2023-05-07T05:47:23.402Z,13.45
2023-05-07T05:49:50.696Z,14.15
2023-05-07T05:52:18.180Z,13.70
2023-05-07T05:54:46.134Z,13.38
2023-05-07T05:57:12.716Z,14.60
2023-05-07T05:59:39.757Z,14.27
2023-05-07T06:02:07.339Z,15.00
2023-05-07T06:04:34.454Z,14.25
2023-05-07T06:07:01.200Z,14.70
2023-05-07T06:09:27.781Z,12.53
2023-05-07T06:11:54.561Z,16.52
2023-05-07T06:14:21.089Z,14.80
2023-05-07T06:16:47.972Z,14.20
2023-05-07T06:19:14.544Z,14.55
2023-05-07T06:21:42.078Z,14.10
2023-05-07T06:24:08.892Z,14.10
2023-05-07T06:26:37.414Z,15.27
2023-05-07T06:29:04.088Z,12.82
2023-05-07T06:31:34.727Z,14.82
2023-05-07T06:34:05.957Z,16.13
2023-05-07T06:36:36.503Z,14.73
2023-05-07T06:39:13.079Z,15.10
2023-05-07T06:41:39.984Z,15.15
2023-05-07T06:44:17.876Z,14.73
2023-05-07T06:46:48.386Z,12.63
2023-05-07T06:49:15.016Z,16.88
2023-05-07T06:51:42.093Z,13.68
2023-05-07T06:54:08.777Z,15.35
2023-05-07T06:56:37.953Z,18.13
2023-05-07T06:59:05.570Z,14.23
2023-05-07T07:01:36.425Z,14.90
2023-05-07T07:04:04.281Z,16.25
2023-05-07T07:06:32.804Z,16.17
2023-05-07T07:09:01.501Z,15.20
2023-05-07T07:11:28.809Z,16.47
2023-05-07T07:13:55.725Z,18.05
2023-05-07T07:16:23.164Z,15.25
2023-05-07T07:18:51.957Z,15.82
2023-05-07T07:21:18.761Z,15.20
2023-05-07T07:23:45.377Z,16.07
2023-05-07T07:26:12.190Z,18.10
2023-05-07T07:28:48.013Z,18.52
2023-05-07T07:31:18.313Z,18.40
2023-05-07T07:33:45.264Z,18.20
2023-05-07T07:36:11.885Z,14.70
2023-05-07T07:38:39.272Z,17.10
2023-05-07T07:41:08.713Z,15.73
2023-05-07T07:43:36.450Z,15.70
2023-05-07T07:46:03.837Z,16.95
2023-05-07T07:48:31.703Z,16.10
2023-05-07T07:50:59.296Z,15.88
2023-05-07T07:53:26.326Z,15.93
2023-05-07T07:55:54.452Z,15.68
2023-05-07T07:58:27.914Z,17.50
2023-05-07T08:00:56.872Z,14.67
2023-05-07T08:03:24.287Z,15.02
2023-05-07T08:05:54.394Z,17.83
2023-05-07T08:08:21.461Z,15.60
2023-05-07T08:10:50.979Z,16.73
2023-05-07T08:13:24.665Z,16.30
2023-05-07T08:15:51.722Z,15.07
2023-05-07T08:18:18.512Z,16.92
2023-05-07T08:20:45.859Z,17.98
2023-05-07T08:23:16.682Z,17.02
2023-05-07T08:25:44.890Z,16.57
2023-05-07T08:28:11.712Z,15.93
2023-05-07T08:30:39.803Z,16.05
2023-05-07T08:33:06.423Z,15.25
2023-05-07T08:35:33.028Z,15.80
2023-05-07T08:37:59.832Z,15.30
2023-05-07T08:40:27.773Z,14.38
2023-05-07T08:42:57.892Z,14.88
2023-05-07T08:45:25.351Z,15.10
2023-05-07T08:47:57.311Z,17.30
2023-05-07T08:50:26.218Z,15.40
2023-05-07T08:52:53.280Z,16.90
2023-05-07T08:55:22.554Z,15.70
2023-05-07T08:57:49.416Z,14.68
2023-05-07T09:00:17.509Z,14.60
2023-05-07T09:02:47.415Z,14.33
2023-05-07T09:05:14.388Z,16.30
2023-05-07T09:07:41.141Z,15.88
2023-05-07T09:10:09.137Z,17.17
2023-05-07T09:12:38.220Z,13.55
2023-05-07T09:15:07.530Z,15.30
2023-05-07T09:17:34.809Z,16.60
2023-05-07T09:20:09.299Z,16.60
2023-05-07T09:22:38.446Z,17.40
2023-05-07T09:25:10.499Z,16.33
2023-05-07T09:27:39.067Z,15.70
2023-05-07T09:30:07.325Z,15.93
2023-05-07T09:32:41.268Z,16.75
2023-05-07T09:35:17.920Z,14.30
2023-05-07T09:37:47.576Z,13.32
2023-05-07T09:40:25.592Z,14.10
2023-05-07T09:42:54.278Z,16.30
2023-05-07T09:45:29.091Z,15.35
2023-05-07T09:47:58.945Z,17.15
2023-05-07T09:50:29.601Z,14.45
2023-05-07T09:52:57.882Z,16.07
2023-05-07T09:55:26.817Z,16.73
2023-05-07T09:57:54.804Z,14.95
2023-05-07T10:00:22.356Z,13.85
2023-05-07T10:02:53.705Z,16.77
2023-05-07T10:05:28.714Z,14.93
2023-05-07T10:07:58.564Z,16.98
2023-05-07T10:10:26.285Z,14.30
2023-05-07T10:12:54.077Z,17.23
2023-05-07T10:15:30.273Z,15.43
2023-05-07T10:17:58.465Z,15.03
2023-05-07T10:20:26.956Z,17.23
2023-05-07T10:22:57.814Z,15.32
2023-05-07T10:25:31.941Z,17.42
2023-05-07T10:28:07.460Z,16.15
2023-05-07T10:31:09.201Z,18.37
2023-05-07T10:33:43.196Z,16.42
2023-05-07T10:36:10.462Z,15.18
2023-05-07T10:38:37.348Z,14.80
2023-05-07T10:41:06.596Z,14.65
2023-05-07T10:43:43.169Z,14.97
2023-05-07T10:46:12.455Z,13.75
2023-05-07T10:49:03.768Z,14.75
2023-05-07T10:51:39.577Z,14.18
2023-05-07T10:54:16.490Z,14.13
2023-05-07T10:56:52.391Z,13.73
2023-05-07T10:59:32.449Z,14.70
2023-05-07T11:02:09.085Z,14.00
2023-05-07T11:05:21.900Z,14.65
2023-05-07T11:08:02.378Z,13.95
2023-05-07T11:10:56.044Z,15.10
2023-05-07T11:13:48.277Z,13.20
2023-05-07T11:16:37.824Z,14.40
2023-05-07T11:19:18.492Z,15.30
2023-05-07T11:21:49.599Z,14.98
2023-05-07T11:24:38.777Z,16.00
2023-05-07T11:27:05.713Z,12.20
2023-05-07T11:29:32.357Z,14.73
2023-05-07T11:32:06.997Z,15.32
2023-05-07T11:34:40.228Z,15.40
2023-05-07T11:37:07.092Z,14.87
2023-05-07T11:39:49.820Z,16.30
2023-05-07T11:42:32.660Z,13.50
2023-05-07T11:44:59.680Z,15.10
2023-05-07T11:47:30.989Z,12.35
2023-05-07T11:49:58.171Z,14.33
2023-05-07T11:52:25.777Z,14.82
2023-05-07T11:54:53.954Z,16.73
2023-05-07T11:57:20.982Z,14.50
2023-05-07T11:59:49.120Z,16.40
2023-05-07T12:02:16.475Z,16.17
2023-05-07T12:04:43.367Z,16.52
2023-05-07T12:07:16.878Z,16.58
2023-05-07T12:09:43.920Z,16.35
2023-05-07T12:12:10.766Z,16.35
2023-05-07T12:14:41.483Z,16.13
2023-05-07T12:17:13.000Z,15.88
2023-05-07T12:19:41.361Z,14.45
2023-05-07T12:22:11.667Z,17.15
2023-05-07T12:25:00.385Z,15.00
2023-05-07T12:27:31.196Z,15.50
2023-05-07T12:29:58.713Z,15.88
2023-05-07T12:32:25.478Z,15.55
2023-05-07T12:34:53.123Z,14.23
2023-05-07T12:37:26.372Z,13.57
2023-05-07T12:40:07.413Z,14.40
2023-05-07T12:42:37.169Z,16.02
2023-05-07T12:45:14.881Z,15.25
2023-05-07T12:47:46.133Z,15.75
2023-05-07T12:50:14.320Z,14.55
2023-05-07T12:52:41.502Z,16.13
2023-05-07T12:55:09.695Z,14.63
2023-05-07T12:57:49.896Z,15.75
2023-05-07T13:00:16.958Z,15.10
2023-05-07T13:02:47.409Z,13.82
2023-05-07T13:05:14.467Z,14.67
2023-05-07T13:07:48.598Z,14.63
2023-05-07T13:10:18.533Z,16.20
2023-05-07T13:12:45.906Z,14.63
2023-05-07T13:15:12.725Z,16.48
2023-05-07T13:17:39.545Z,15.20
2023-05-07T13:20:06.725Z,14.85
2023-05-07T13:22:33.297Z,12.20
2023-05-07T13:24:59.848Z,15.73
2023-05-07T13:27:27.057Z,14.93
2023-05-07T13:29:53.872Z,15.57
2023-05-07T13:32:20.603Z,15.10
2023-05-07T13:34:47.263Z,14.30
2023-05-07T13:37:13.811Z,14.68
2023-05-07T13:39:40.620Z,14.30
2023-05-07T13:42:07.384Z,15.97
2023-05-07T13:44:34.231Z,16.67
2023-05-07T13:47:01.541Z,15.23
2023-05-07T13:49:28.505Z,15.60
2023-05-07T13:51:55.277Z,15.80
2023-05-07T13:54:21.809Z,14.30
2023-05-07T13:56:48.524Z,14.77
2023-05-07T13:59:15.524Z,14.73
2023-05-07T14:01:42.507Z,13.85
2023-05-07T14:04:09.174Z,15.68
2023-05-07T14:06:35.873Z,15.27
2023-05-07T14:09:02.637Z,15.98
2023-05-07T14:11:29.527Z,15.63
2023-05-07T14:13:57.956Z,15.20
2023-05-07T14:16:24.610Z,15.02
2023-05-07T14:18:51.405Z,15.47
2023-05-07T14:21:17.946Z,15.18
2023-05-07T14:23:44.552Z,16.08
2023-05-07T14:26:11.258Z,14.85
2023-05-07T14:28:40.542Z,16.08
2023-05-07T14:31:07.528Z,16.83
2023-05-07T14:33:34.141Z,15.35
2023-05-07T14:36:00.647Z,14.25
2023-05-07T14:38:27.166Z,13.43
2023-05-07T14:40:56.745Z,15.02
2023-05-07T14:43:23.377Z,14.70
2023-05-07T14:45:51.119Z,14.75
2023-05-07T14:48:20.997Z,15.05
2023-05-07T14:50:49.179Z,14.05
2023-05-07T14:53:16.299Z,14.43
2023-05-07T14:55:43.050Z,14.13
2023-05-07T14:58:11.675Z,14.18
2023-05-07T15:00:38.255Z,13.77
2023-05-07T15:03:09.944Z,14.05
2023-05-07T15:05:37.516Z,14.65
2023-05-07T15:08:04.213Z,14.97
2023-05-07T15:10:30.935Z,13.80
2023-05-07T15:12:57.672Z,14.25
2023-05-07T15:15:24.293Z,14.48
2023-05-07T15:17:51.486Z,13.98
2023-05-07T15:20:18.637Z,14.00
2023-05-07T15:22:45.555Z,14.15
2023-05-07T15:25:12.795Z,14.55
2023-05-07T15:27:39.792Z,14.23
2023-05-07T15:30:07.055Z,14.23
2023-05-07T15:32:33.892Z,13.80
2023-05-07T15:35:00.451Z,14.55
2023-05-07T15:37:27.087Z,14.10
2023-05-07T15:39:53.720Z,13.68
2023-05-07T15:42:21.113Z,14.18
2023-05-07T15:44:47.744Z,13.83
2023-05-07T15:47:15.234Z,14.63
2023-05-07T15:49:42.569Z,14.10
2023-05-07T15:52:11.758Z,14.35
2023-05-07T15:54:41.170Z,13.48
2023-05-07T15:57:07.966Z,11.03
2023-05-07T15:59:36.156Z,9.57
2023-05-07T16:02:03.051Z,9.45
2023-05-07T16:04:29.741Z,9.40
2023-05-07T16:06:56.802Z,9.02
2023-05-07T16:09:25.067Z,7.77
2023-05-07T16:11:51.735Z,8.27
2023-05-07T16:14:18.412Z,8.88
2023-05-07T16:16:45.154Z,8.68
2023-05-07T16:19:11.760Z,9.55
2023-05-07T16:21:38.419Z,9.30
2023-05-07T16:24:05.042Z,9.95
2023-05-07T16:26:31.827Z,11.32
2023-05-07T16:29:01.902Z,10.80
2023-05-07T16:31:30.263Z,10.75
2023-05-07T16:33:57.007Z,10.80
2023-05-07T16:36:23.598Z,11.98
2023-05-07T16:38:50.325Z,12.98
2023-05-07T16:41:16.993Z,13.07
2023-05-07T16:43:43.961Z,14.32
2023-05-07T16:46:10.899Z,13.27
2023-05-07T16:48:37.521Z,13.95
2023-05-07T16:51:04.409Z,14.82
2023-05-07T16:53:31.020Z,15.73
2023-05-07T16:55:57.692Z,15.45
2023-05-07T16:58:24.824Z,14.40
2023-05-07T17:00:51.650Z,14.88
2023-05-07T17:03:19.477Z,14.07
2023-05-07T17:05:46.528Z,14.43
2023-05-07T17:08:13.882Z,13.73
2023-05-07T17:10:41.186Z,13.67
2023-05-07T17:13:07.926Z,14.13
2023-05-07T17:15:34.622Z,14.48
2023-05-07T17:18:01.317Z,14.60
2023-05-07T17:20:28.705Z,14.55
2023-05-07T17:22:55.815Z,16.77
2023-05-07T17:25:23.321Z,14.90
2023-05-07T17:27:50.194Z,14.20
2023-05-07T17:30:17.305Z,14.85
2023-05-07T17:32:46.866Z,13.02
2023-05-07T17:35:13.538Z,15.50
2023-05-07T17:37:40.403Z,15.88
2023-05-07T17:40:07.770Z,16.17
2023-05-07T17:42:40.394Z,17.58
2023-05-07T17:45:07.815Z,18.15
2023-05-07T17:47:35.633Z,17.27
2023-05-07T17:50:02.940Z,17.55
2023-05-07T17:52:29.490Z,18.75
2023-05-07T17:54:56.088Z,19.35
2023-05-07T17:57:22.751Z,17.20
2023-05-07T17:59:49.536Z,16.10
2023-05-07T18:02:16.284Z,18.52
2023-05-07T18:04:43.007Z,18.45
2023-05-07T18:07:09.712Z,17.60
2023-05-07T18:09:36.259Z,19.55
2023-05-07T18:12:02.807Z,18.83
2023-05-07T18:14:29.641Z,18.27
2023-05-07T18:16:56.344Z,16.33
2023-05-07T18:19:23.006Z,15.70
2023-05-07T18:21:49.748Z,15.60
2023-05-07T18:24:16.336Z,17.47
2023-05-07T18:26:42.962Z,19.33
2023-05-07T18:29:09.515Z,18.38
2023-05-07T18:31:37.865Z,16.73
2023-05-07T18:34:06.276Z,16.55
2023-05-07T18:36:32.957Z,14.87
2023-05-07T18:38:59.692Z,14.40
2023-05-07T18:41:26.292Z,15.30
2023-05-07T18:43:52.844Z,17.80
2023-05-07T18:46:19.794Z,16.88
2023-05-07T18:48:46.729Z,16.03
2023-05-07T18:51:13.346Z,16.05
2023-05-07T18:53:40.279Z,18.20
2023-05-07T18:56:08.959Z,14.80
2023-05-07T18:58:36.025Z,14.93
2023-05-07T19:01:08.230Z,13.47
2023-05-07T19:03:35.790Z,16.35
2023-05-07T19:06:02.966Z,15.80
2023-05-07T19:08:29.591Z,15.45
2023-05-07T19:10:56.560Z,17.30
2023-05-07T19:13:27.456Z,15.53
2023-05-07T19:15:54.938Z,18.20
2023-05-07T19:18:21.608Z,17.58
2023-05-07T19:20:50.220Z,16.80
2023-05-07T19:23:18.893Z,20.42
2023-05-07T19:25:45.735Z,22.20
2023-05-07T19:28:12.249Z,20.23
2023-05-07T19:30:40.061Z,21.35
2023-05-07T19:33:07.391Z,20.92
2023-05-07T19:35:35.282Z,20.75
2023-05-07T19:38:02.632Z,19.07
2023-05-07T19:40:31.318Z,18.73
2023-05-07T19:42:58.059Z,16.52
2023-05-07T19:45:24.834Z,17.60
2023-05-07T19:47:51.657Z,17.42
2023-05-07T19:50:20.716Z,17.40
2023-05-07T19:52:47.479Z,15.35
2023-05-07T19:55:14.568Z,16.77
2023-05-07T19:57:43.012Z,17.48
2023-05-07T20:00:15.600Z,17.17
2023-05-07T20:02:44.721Z,14.17
2023-05-07T20:05:12.600Z,15.43
2023-05-07T20:07:39.450Z,15.73
2023-05-07T20:10:06.791Z,12.27
2023-05-07T20:12:33.462Z,13.35
2023-05-07T20:15:01.022Z,14.20
2023-05-07T20:17:27.596Z,13.75
2023-05-07T20:19:55.561Z,14.48
2023-05-07T20:22:25.141Z,12.75
2023-05-07T20:24:51.789Z,16.00
2023-05-07T20:27:26.504Z,13.90
2023-05-07T20:29:53.797Z,13.40
2023-05-07T20:32:28.105Z,11.98
2023-05-07T20:34:54.741Z,11.52
2023-05-07T20:37:21.417Z,13.43
2023-05-07T20:39:48.117Z,11.70
2023-05-07T20:42:14.827Z,13.05
2023-05-07T20:44:41.488Z,12.73
2023-05-07T20:47:11.137Z,11.30
2023-05-07T20:49:37.881Z,12.23
2023-05-07T20:52:05.305Z,12.40
2023-05-07T20:54:32.041Z,14.35
2023-05-07T20:57:00.190Z,12.88
2023-05-07T20:59:27.096Z,13.63
2023-05-07T21:01:54.632Z,14.23
2023-05-07T21:04:22.907Z,12.90
2023-05-07T21:06:49.619Z,12.70
2023-05-07T21:09:16.389Z,13.20
2023-05-07T21:11:43.332Z,12.63
2023-05-07T21:14:10.065Z,11.80
2023-05-07T21:16:36.746Z,12.80
2023-05-07T21:19:03.876Z,11.75
2023-05-07T21:21:32.712Z,13.20
2023-05-07T21:23:59.797Z,10.75
2023-05-07T21:26:26.882Z,12.02
2023-05-07T21:29:01.104Z,11.23
2023-05-07T21:31:27.992Z,11.32
2023-05-07T21:33:57.509Z,11.13
2023-05-07T21:36:24.286Z,11.20
2023-05-07T21:38:51.152Z,10.95
2023-05-07T21:41:20.534Z,11.40
2023-05-07T21:43:47.256Z,10.35
2023-05-07T21:46:13.908Z,12.57
2023-05-07T21:48:40.665Z,10.65
2023-05-07T21:51:11.456Z,13.27
2023-05-07T21:53:38.110Z,11.63
2023-05-07T21:56:05.341Z,12.32
2023-05-07T21:58:32.274Z,11.30
2023-05-07T22:01:00.296Z,11.43
2023-05-07T22:03:27.238Z,9.75
2023-05-07T22:05:54.141Z,11.77
2023-05-07T22:08:21.037Z,11.50
2023-05-07T22:10:47.716Z,12.73
2023-05-07T22:13:14.377Z,11.50
2023-05-07T22:15:49.530Z,12.00
2023-05-07T22:18:23.191Z,11.97
2023-05-07T22:20:51.811Z,10.70
2023-05-07T22:23:18.525Z,12.30
2023-05-07T22:25:58.883Z,13.00
2023-05-07T22:28:25.888Z,11.88
2023-05-07T22:30:52.442Z,10.48
2023-05-07T22:33:19.199Z,10.87
2023-05-07T22:35:45.865Z,13.20
2023-05-07T22:38:12.421Z,11.43
2023-05-07T22:40:38.967Z,10.82
2023-05-07T22:43:05.665Z,11.77
2023-05-07T22:45:32.258Z,13.63
2023-05-07T22:47:58.859Z,10.70
2023-05-07T22:50:25.399Z,10.93
2023-05-07T22:52:51.912Z,10.70
2023-05-07T22:55:18.489Z,11.40
2023-05-07T22:57:44.986Z,12.07
2023-05-07T23:00:12.508Z,11.50
2023-05-07T23:02:39.297Z,9.13
2023-05-07T23:05:06.091Z,9.93
2023-05-07T23:07:32.666Z,10.95
2023-05-07T23:09:59.167Z,14.43
2023-05-07T23:12:25.673Z,11.07
2023-05-07T23:14:52.210Z,12.07
2023-05-07T23:17:18.709Z,13.73
2023-05-07T23:19:45.315Z,12.95
2023-05-07T23:22:12.307Z,12.47
2023-05-07T23:24:38.920Z,11.43
2023-05-07T23:27:05.997Z,11.88
2023-05-07T23:29:32.879Z,13.93
2023-05-07T23:31:59.904Z,13.30
2023-05-07T23:34:26.863Z,11.97
2023-05-07T23:36:53.942Z,13.05
2023-05-07T23:39:20.560Z,12.48
2023-05-07T23:41:47.698Z,12.75
2023-05-07T23:44:16.471Z,13.57
2023-05-07T23:46:44.410Z,13.60
2023-05-07T23:49:11.232Z,14.93
2023-05-07T23:51:37.954Z,12.23
2023-05-07T23:54:04.932Z,13.98
2023-05-07T23:56:31.570Z,12.02
2023-05-07T23:58:58.206Z,12.43
